Time,TemperatureF,DewpointF,PressureIn,WindDirection,WindDirectionDegrees,WindSpeedMPH,WindSpeedGustMPH,Humidity,HourlyPrecipIn,Conditions,Clouds,dailyrainin,SoftwareType,DateUTC
2013-03-21 07:14:00,23.6,15.9,29.86,NNW,329,0.0,0.0,72,0.00,,,0.00,Wunderground v.1.15,2013-03-21 11:14:00,
2013-03-21 07:15:00,23.6,15.9,29.86,NNW,329,0.0,3.0,72,0.00,,,0.00,Wunderground v.1.15,2013-03-21 11:15:00,
2013-03-21 07:16:00,23.6,15.9,29.86,NNW,329,0.0,4.0,72,0.00,,,0.00,Wunderground v.1.15,2013-03-21 11:16:00,
2013-03-21 07:17:00,23.6,15.9,29.86,NNW,329,1.0,4.0,72,0.00,,,0.00,Wunderground v.1.15,2013-03-21 11:17:00,
2013-03-21 07:23:00,23.7,16.3,29.85,NNW,329,1.0,2.0,73,0.00,,,0.00,Wunderground v.1.15,2013-03-21 11:23:00,
2013-03-21 07:29:00,23.7,16.6,29.86,NNW,329,1.0,4.0,74,0.00,,,0.00,Wunderground v.1.15,2013-03-21 11:29:00,
2013-03-21 07:35:00,24.1,17.0,29.86,NNW,329,3.0,5.0,74,0.00,,,0.00,Wunderground v.1.15,2013-03-21 11:35:00,
2013-03-21 07:40:00,24.4,17.0,29.86,NNW,329,3.0,5.0,73,0.00,,,0.00,Wunderground v.1.15,2013-03-21 11:40:00,
2013-03-21 07:45:00,24.7,17.6,29.86,NNW,329,2.0,4.0,74,0.00,,,0.00,Wunderground v.1.15,2013-03-21 11:45:00,
2013-03-21 07:51:00,25.2,18.1,29.86,WNW,292,4.0,9.0,74,0.00,,,0.00,Wunderground v.1.15,2013-03-21 11:51:00,
2013-03-21 07:57:00,25.8,18.3,29.86,WNW,289,7.0,10.0,73,0.00,,,0.00,Wunderground v.1.15,2013-03-21 11:57:00,
2013-03-21 08:03:00,26.2,19.0,29.86,NW,313,7.0,10.0,74,0.00,,,0.00,Wunderground v.1.15,2013-03-21 12:03:00,
2013-03-21 08:09:00,26.3,18.5,29.86,NW,305,7.0,10.0,72,0.00,,,0.00,Wunderground v.1.15,2013-03-21 12:09:00,
2013-03-21 08:15:00,26.6,18.8,29.86,WNW,298,6.0,7.0,72,0.00,,,0.00,Wunderground v.1.15,2013-03-21 12:15:00,
2013-03-21 08:20:00,26.9,18.4,29.85,WNW,296,6.0,6.0,70,0.00,,,0.00,Wunderground v.1.15,2013-03-21 12:20:00,
2013-03-21 08:26:00,27.2,18.7,29.86,West,276,6.0,6.0,70,0.00,,,0.00,Wunderground v.1.15,2013-03-21 12:26:00,
2013-03-21 08:31:00,27.1,18.3,29.85,WNW,294,6.0,9.0,69,0.00,,,0.00,Wunderground v.1.15,2013-03-21 12:31:00,
2013-03-21 08:37:00,26.7,17.2,29.85,NW,312,8.0,13.0,67,0.00,,,0.00,Wunderground v.1.15,2013-03-21 12:37:00,
2013-03-21 08:42:00,27.1,17.6,29.85,NW,320,7.0,9.0,67,0.00,,,0.00,Wunderground v.1.15,2013-03-21 12:42:00,
2013-03-21 08:48:00,27.5,17.3,29.85,WNW,302,5.0,11.0,65,0.00,,,0.00,Wunderground v.1.15,2013-03-21 12:48:00,
2013-03-21 08:53:00,27.9,17.3,29.85,NW,317,5.0,11.0,64,0.00,,,0.00,Wunderground v.1.15,2013-03-21 12:53:00,
2013-03-21 08:59:00,28.2,16.8,29.85,West,263,7.0,11.0,62,0.00,,,0.00,Wunderground v.1.15,2013-03-21 12:59:00,
2013-03-21 09:05:00,28.3,16.2,29.85,WNW,289,8.0,14.0,60,0.00,,,0.00,Wunderground v.1.15,2013-03-21 13:05:00,
2013-03-21 09:11:00,28.5,16.0,29.85,WNW,292,9.0,9.0,59,0.00,,,0.00,Wunderground v.1.15,2013-03-21 13:11:00,
2013-03-21 09:16:00,28.8,16.3,29.85,WNW,290,9.0,11.0,59,0.00,,,0.00,Wunderground v.1.15,2013-03-21 13:16:00,
2013-03-21 09:22:00,28.7,15.4,29.85,WNW,302,10.0,15.0,57,0.00,,,0.00,Wunderground v.1.15,2013-03-21 13:22:00,
2013-03-21 09:27:00,28.4,15.1,29.85,WNW,296,10.0,15.0,57,0.00,,,0.00,Wunderground v.1.15,2013-03-21 13:27:00,
2013-03-21 09:33:00,28.2,15.3,29.85,NW,313,9.0,10.0,58,0.00,,,0.00,Wunderground v.1.15,2013-03-21 13:33:00,
2013-03-21 09:39:00,28.3,15.4,29.85,NW,321,9.0,12.0,58,0.00,,,0.00,Wunderground v.1.15,2013-03-21 13:39:00,
2013-03-21 09:44:00,28.0,17.7,29.85,NNW,329,9.0,12.0,65,0.00,,,0.00,Wunderground v.1.15,2013-03-21 13:44:00,
2013-03-21 09:49:00,27.5,17.3,29.85,NW,323,10.0,14.0,65,0.00,,,0.00,Wunderground v.1.15,2013-03-21 13:49:00,
2013-03-21 09:55:00,27.0,17.1,29.85,NW,326,9.0,13.0,66,0.00,,,0.00,Wunderground v.1.15,2013-03-21 13:55:00,
2013-03-21 10:01:00,26.9,17.4,29.85,NW,313,10.0,12.0,67,0.00,,,0.00,Wunderground v.1.15,2013-03-21 14:01:00,
2013-03-21 10:06:00,26.7,17.6,29.86,NNW,334,11.0,18.0,68,0.00,,,0.00,Wunderground v.1.15,2013-03-21 14:06:00,
2013-03-21 10:12:00,26.6,17.1,29.86,WNW,300,11.0,14.0,67,0.00,,,0.00,Wunderground v.1.15,2013-03-21 14:12:00,
2013-03-21 10:18:00,28.3,18.4,29.86,West,271,9.0,14.0,66,0.00,,,0.00,Wunderground v.1.15,2013-03-21 14:18:00,
2013-03-21 10:23:00,28.3,16.2,29.86,NW,320,10.0,16.0,60,0.00,,,0.00,Wunderground v.1.15,2013-03-21 14:23:00,
2013-03-21 10:29:00,28.6,16.5,29.85,NW,311,12.0,16.0,60,0.00,,,0.00,Wunderground v.1.15,2013-03-21 14:29:00,
2013-03-21 10:35:00,29.0,16.8,29.86,WNW,293,11.0,14.0,60,0.00,,,0.00,Wunderground v.1.15,2013-03-21 14:35:00,
2013-03-21 10:40:00,29.1,17.3,29.85,NW,314,10.0,10.0,61,0.00,,,0.00,Wunderground v.1.15,2013-03-21 14:40:00,
2013-03-21 10:46:00,29.0,15.7,29.86,NW,315,9.0,16.0,57,0.00,,,0.00,Wunderground v.1.15,2013-03-21 14:46:00,
2013-03-21 10:51:00,28.7,15.4,29.85,NW,313,10.0,11.0,57,0.00,,,0.00,Wunderground v.1.15,2013-03-21 14:51:00,
2013-03-21 10:57:00,28.9,15.6,29.85,NW,307,12.0,13.0,57,0.00,,,0.00,Wunderground v.1.15,2013-03-21 14:57:00,
2013-03-21 11:03:00,28.9,13.9,29.85,NW,315,11.0,12.0,53,0.00,,,0.00,Wunderground v.1.15,2013-03-21 15:03:00,
2013-03-21 11:09:00,29.4,13.9,29.85,WNW,298,10.0,18.0,52,0.00,,,0.00,Wunderground v.1.15,2013-03-21 15:09:00,
2013-03-21 11:15:00,29.6,14.1,29.85,WSW,254,12.0,20.0,52,0.00,,,0.00,Wunderground v.1.15,2013-03-21 15:15:00,
2013-03-21 11:21:00,30.1,15.4,29.85,West,275,13.0,13.0,54,0.00,,,0.00,Wunderground v.1.15,2013-03-21 15:21:00,
2013-03-21 11:26:00,30.1,15.0,29.86,NW,324,12.0,17.0,53,0.00,,,0.00,Wunderground v.1.15,2013-03-21 15:26:00,
2013-03-21 11:31:00,30.1,15.0,29.85,WSW,255,11.0,11.0,53,0.00,,,0.00,Wunderground v.1.15,2013-03-21 15:31:00,
2013-03-21 11:37:00,29.9,16.9,29.85,NW,311,10.0,14.0,58,0.00,,,0.00,Wunderground v.1.15,2013-03-21 15:37:00,
2013-03-21 11:43:00,28.4,15.5,29.85,NW,317,11.0,12.0,58,0.00,,,0.00,Wunderground v.1.15,2013-03-21 15:43:00,
2013-03-21 11:49:00,28.9,15.2,29.85,WNW,287,11.0,16.0,56,0.00,,,0.00,Wunderground v.1.15,2013-03-21 15:49:00,
2013-03-21 11:54:00,29.2,15.0,29.85,West,275,9.0,11.0,55,0.00,,,0.00,Wunderground v.1.15,2013-03-21 15:54:00,
2013-03-21 12:00:00,30.1,17.1,29.85,WNW,286,8.0,10.0,58,0.00,,,0.00,Wunderground v.1.15,2013-03-21 16:00:00,
2013-03-21 12:05:00,30.9,15.3,29.84,West,261,9.0,13.0,52,0.00,,,0.00,Wunderground v.1.15,2013-03-21 16:05:00,
2013-03-21 12:11:00,29.9,14.8,29.84,West,279,10.0,10.0,53,0.00,,,0.00,Wunderground v.1.15,2013-03-21 16:11:00,
2013-03-21 12:16:00,29.7,15.5,29.84,West,281,11.0,13.0,55,0.00,,,0.00,Wunderground v.1.15,2013-03-21 16:16:00,
2013-03-21 12:22:00,29.6,15.8,29.84,NW,320,11.0,11.0,56,0.00,,,0.00,Wunderground v.1.15,2013-03-21 16:22:00,
2013-03-21 12:28:00,29.6,16.2,29.84,NW,308,11.0,13.0,57,0.00,,,0.00,Wunderground v.1.15,2013-03-21 16:28:00,
2013-03-21 12:34:00,30.1,16.3,29.84,NW,311,12.0,15.0,56,0.00,,,0.00,Wunderground v.1.15,2013-03-21 16:34:00,
2013-03-21 12:39:00,30.8,16.9,29.84,WNW,294,10.0,15.0,56,0.00,,,0.00,Wunderground v.1.15,2013-03-21 16:39:00,
2013-03-21 12:44:00,31.2,16.9,29.84,WNW,293,10.0,17.0,55,0.00,,,0.00,Wunderground v.1.15,2013-03-21 16:44:00,
2013-03-21 12:50:00,30.9,16.2,29.84,NNW,327,11.0,17.0,54,0.00,,,0.00,Wunderground v.1.15,2013-03-21 16:50:00,
2013-03-21 12:56:00,31.2,16.5,29.84,WNW,303,10.0,17.0,54,0.00,,,0.00,Wunderground v.1.15,2013-03-21 16:56:00,
2013-03-21 13:01:00,31.0,15.4,29.84,West,266,11.0,12.0,52,0.00,,,0.00,Wunderground v.1.15,2013-03-21 17:01:00,
2013-03-21 13:06:00,31.1,15.5,29.84,NW,321,11.0,14.0,52,0.00,,,0.00,Wunderground v.1.15,2013-03-21 17:06:00,
2013-03-21 13:12:00,31.1,15.5,29.83,WNW,290,11.0,12.0,52,0.00,,,0.00,Wunderground v.1.15,2013-03-21 17:12:00,
2013-03-21 13:17:00,30.9,15.3,29.84,WNW,288,12.0,16.0,52,0.00,,,0.00,Wunderground v.1.15,2013-03-21 17:17:00,
2013-03-21 13:22:00,31.4,17.5,29.84,West,277,12.0,15.0,56,0.00,,,0.00,Wunderground v.1.15,2013-03-21 17:22:00,
2013-03-21 13:28:00,31.2,16.0,29.84,West,279,13.0,15.0,53,0.00,,,0.00,Wunderground v.1.15,2013-03-21 17:28:00,
2013-03-21 13:33:00,30.5,15.8,29.83,WNW,299,13.0,15.0,54,0.00,,,0.00,Wunderground v.1.15,2013-03-21 17:33:00,
2013-03-21 13:39:00,30.6,14.6,29.83,WNW,301,12.0,15.0,51,0.00,,,0.00,Wunderground v.1.15,2013-03-21 17:39:00,
2013-03-21 13:45:00,31.3,15.2,29.83,WNW,298,13.0,18.0,51,0.00,,,0.00,Wunderground v.1.15,2013-03-21 17:45:00,
2013-03-21 13:51:00,31.0,14.5,29.83,West,281,12.0,13.0,50,0.00,,,0.00,Wunderground v.1.15,2013-03-21 17:51:00,
2013-03-21 13:57:00,30.9,15.8,29.83,NW,308,12.0,18.0,53,0.00,,,0.00,Wunderground v.1.15,2013-03-21 17:57:00,
2013-03-21 14:03:00,29.9,13.5,29.83,NW,306,14.0,16.0,50,0.00,,,0.00,Wunderground v.1.15,2013-03-21 18:03:00,
2013-03-21 14:09:00,30.8,16.1,29.83,West,271,14.0,16.0,54,0.00,,,0.00,Wunderground v.1.15,2013-03-21 18:09:00,
2013-03-21 14:15:00,30.7,13.8,29.83,WNW,289,12.0,21.0,49,0.00,,,0.00,Wunderground v.1.15,2013-03-21 18:15:00,
2013-03-21 14:21:00,30.0,14.5,29.83,NW,307,13.0,13.0,52,0.00,,,0.00,Wunderground v.1.15,2013-03-21 18:21:00,
2013-03-21 14:27:00,31.2,15.6,29.83,NW,311,11.0,18.0,52,0.00,,,0.00,Wunderground v.1.15,2013-03-21 18:27:00,
2013-03-21 14:33:00,31.6,14.6,29.83,NW,306,11.0,17.0,49,0.00,,,0.00,Wunderground v.1.15,2013-03-21 18:33:00,
2013-03-21 14:39:00,30.7,14.2,29.83,NW,306,12.0,20.0,50,0.00,,,0.00,Wunderground v.1.15,2013-03-21 18:39:00,
2013-03-21 14:45:00,30.4,14.9,29.82,West,281,12.0,19.0,52,0.00,,,0.00,Wunderground v.1.15,2013-03-21 18:45:00,
2013-03-21 14:50:00,31.1,15.9,29.82,WNW,296,12.0,14.0,53,0.00,,,0.00,Wunderground v.1.15,2013-03-21 18:50:00,
2013-03-21 14:56:00,31.0,15.4,29.83,WNW,288,11.0,15.0,52,0.00,,,0.00,Wunderground v.1.15,2013-03-21 18:56:00,
2013-03-21 15:02:00,30.7,16.4,29.82,WSW,248,12.0,13.0,55,0.00,,,0.00,Wunderground v.1.15,2013-03-21 19:02:00,
2013-03-21 15:07:00,31.4,16.2,29.83,NNW,329,12.0,15.0,53,0.00,,,0.00,Wunderground v.1.15,2013-03-21 19:07:00,
2013-03-21 15:13:00,30.6,15.9,29.83,WNW,296,11.0,18.0,54,0.00,,,0.00,Wunderground v.1.15,2013-03-21 19:13:00,
2013-03-21 15:19:00,29.8,16.8,29.83,West,281,13.0,18.0,58,0.00,,,0.00,Wunderground v.1.15,2013-03-21 19:19:00,
2013-03-21 15:25:00,29.7,15.5,29.83,WNW,291,12.0,14.0,55,0.00,,,0.00,Wunderground v.1.15,2013-03-21 19:25:00,
2013-03-21 15:30:00,29.6,15.8,29.83,WNW,286,12.0,12.0,56,0.00,,,0.00,Wunderground v.1.15,2013-03-21 19:30:00,
2013-03-21 15:36:00,30.6,17.2,29.83,WNW,300,10.0,12.0,57,0.00,,,0.00,Wunderground v.1.15,2013-03-21 19:36:00,
2013-03-21 15:42:00,31.0,15.4,29.83,WNW,289,11.0,13.0,52,0.00,,,0.00,Wunderground v.1.15,2013-03-21 19:42:00,
2013-03-21 15:48:00,31.2,16.5,29.83,West,260,13.0,19.0,54,0.00,,,0.00,Wunderground v.1.15,2013-03-21 19:48:00,
2013-03-21 15:54:00,31.2,16.0,29.83,WNW,293,13.0,19.0,53,0.00,,,0.00,Wunderground v.1.15,2013-03-21 19:54:00,
2013-03-21 16:00:00,31.7,16.9,29.83,West,281,12.0,20.0,54,0.00,,,0.00,Wunderground v.1.15,2013-03-21 20:00:00,
2013-03-21 16:06:00,31.4,16.2,29.83,WNW,286,12.0,22.0,53,0.00,,,0.00,Wunderground v.1.15,2013-03-21 20:06:00,
2013-03-21 16:11:00,32.0,15.9,29.83,West,273,12.0,16.0,51,0.00,,,0.00,Wunderground v.1.15,2013-03-21 20:11:00,
2013-03-21 16:17:00,32.3,17.1,29.83,NW,307,12.0,16.0,53,0.00,,,0.00,Wunderground v.1.15,2013-03-21 20:17:00,
2013-03-21 16:22:00,32.0,15.4,29.83,WNW,295,12.0,16.0,50,0.00,,,0.00,Wunderground v.1.15,2013-03-21 20:22:00,
2013-03-21 16:27:00,31.0,15.4,29.83,West,265,13.0,16.0,52,0.00,,,0.00,Wunderground v.1.15,2013-03-21 20:27:00,
2013-03-21 16:32:00,30.6,15.5,29.83,WNW,299,12.0,13.0,53,0.00,,,0.00,Wunderground v.1.15,2013-03-21 20:32:00,
2013-03-21 16:38:00,30.1,14.1,29.83,WNW,283,12.0,16.0,51,0.00,,,0.00,Wunderground v.1.15,2013-03-21 20:38:00,
2013-03-21 16:44:00,29.5,14.5,29.83,WNW,302,12.0,15.0,53,0.00,,,0.00,Wunderground v.1.15,2013-03-21 20:44:00,
2013-03-21 16:49:00,29.6,14.5,29.84,WNW,290,12.0,15.0,53,0.00,,,0.00,Wunderground v.1.15,2013-03-21 20:49:00,
2013-03-21 16:54:00,29.6,14.5,29.84,West,272,12.0,14.0,53,0.00,,,0.00,Wunderground v.1.15,2013-03-21 20:54:00,
2013-03-21 17:00:00,29.1,14.1,29.84,West,271,12.0,12.0,53,0.00,,,0.00,Wunderground v.1.15,2013-03-21 21:00:00,
2013-03-21 17:06:00,29.2,14.6,29.84,WNW,298,9.0,14.0,54,0.00,,,0.00,Wunderground v.1.15,2013-03-21 21:06:00,
2013-03-21 17:12:00,29.5,14.0,29.84,West,279,10.0,15.0,52,0.00,,,0.00,Wunderground v.1.15,2013-03-21 21:12:00,
2013-03-21 17:17:00,29.8,13.9,29.84,NW,311,12.0,15.0,51,0.00,,,0.00,Wunderground v.1.15,2013-03-21 21:17:00,
2013-03-21 17:22:00,29.9,14.4,29.84,WNW,292,10.0,12.0,52,0.00,,,0.00,Wunderground v.1.15,2013-03-21 21:22:00,
2013-03-21 17:28:00,29.8,13.9,29.85,West,269,10.0,21.0,51,0.00,,,0.00,Wunderground v.1.15,2013-03-21 21:28:00,
2013-03-21 17:33:00,29.3,13.4,29.84,West,272,13.0,14.0,51,0.00,,,0.00,Wunderground v.1.15,2013-03-21 21:33:00,
2013-03-21 17:39:00,29.2,13.7,29.85,NW,321,14.0,17.0,52,0.00,,,0.00,Wunderground v.1.15,2013-03-21 21:39:00,
2013-03-21 17:45:00,29.6,13.2,29.85,WNW,292,13.0,18.0,50,0.00,,,0.00,Wunderground v.1.15,2013-03-21 21:45:00,
2013-03-21 17:51:00,29.8,13.9,29.85,West,271,12.0,13.0,51,0.00,,,0.00,Wunderground v.1.15,2013-03-21 21:51:00,
2013-03-21 17:56:00,29.2,13.3,29.85,NW,312,13.0,18.0,51,0.00,,,0.00,Wunderground v.1.15,2013-03-21 21:56:00,
2013-03-21 18:02:00,28.9,13.5,29.86,NW,315,15.0,15.0,52,0.00,,,0.00,Wunderground v.1.15,2013-03-21 22:02:00,
2013-03-21 18:07:00,29.1,13.6,29.86,NW,305,14.0,15.0,52,0.00,,,0.00,Wunderground v.1.15,2013-03-21 22:07:00,
2013-03-21 18:12:00,29.4,13.9,29.86,West,279,11.0,12.0,52,0.00,,,0.00,Wunderground v.1.15,2013-03-21 22:12:00,
2013-03-21 18:17:00,29.5,13.6,29.86,WNW,292,10.0,12.0,51,0.00,,,0.00,Wunderground v.1.15,2013-03-21 22:17:00,
2013-03-21 18:23:00,29.6,13.7,29.86,WNW,292,10.0,14.0,51,0.00,,,0.00,Wunderground v.1.15,2013-03-21 22:23:00,
2013-03-21 18:29:00,29.2,13.3,29.86,West,275,11.0,14.0,51,0.00,,,0.00,Wunderground v.1.15,2013-03-21 22:29:00,
2013-03-21 18:34:00,29.0,12.7,29.87,NW,304,10.0,15.0,50,0.00,,,0.00,Wunderground v.1.15,2013-03-21 22:34:00,
2013-03-21 18:39:00,28.8,12.9,29.87,West,277,10.0,15.0,51,0.00,,,0.00,Wunderground v.1.15,2013-03-21 22:39:00,
2013-03-21 18:45:00,28.6,12.7,29.87,WNW,298,9.0,17.0,51,0.00,,,0.00,Wunderground v.1.15,2013-03-21 22:45:00,
2013-03-21 18:50:00,28.5,13.1,29.88,WNW,286,10.0,10.0,52,0.00,,,0.00,Wunderground v.1.15,2013-03-21 22:50:00,
2013-03-21 18:56:00,28.5,12.6,29.88,WNW,302,9.0,13.0,51,0.00,,,0.00,Wunderground v.1.15,2013-03-21 22:56:00,
2013-03-21 19:01:00,28.4,12.6,29.88,WNW,303,9.0,13.0,51,0.00,,,0.00,Wunderground v.1.15,2013-03-21 23:01:00,
2013-03-21 19:06:00,28.3,12.5,29.88,West,276,11.0,19.0,51,0.00,,,0.00,Wunderground v.1.15,2013-03-21 23:06:00,
2013-03-21 19:12:00,28.3,12.9,29.88,West,278,11.0,11.0,52,0.00,,,0.00,Wunderground v.1.15,2013-03-21 23:12:00,
2013-03-21 19:17:00,28.2,12.8,29.88,WNW,290,10.0,12.0,52,0.00,,,0.00,Wunderground v.1.15,2013-03-21 23:17:00,
2013-03-21 19:23:00,28.1,12.7,29.89,West,277,9.0,11.0,52,0.00,,,0.00,Wunderground v.1.15,2013-03-21 23:23:00,
2013-03-21 19:29:00,28.0,12.6,29.89,WNW,298,9.0,15.0,52,0.00,,,0.00,Wunderground v.1.15,2013-03-21 23:29:00,
2013-03-21 19:34:00,27.9,13.0,29.89,West,271,10.0,14.0,53,0.00,,,0.00,Wunderground v.1.15,2013-03-21 23:34:00,
2013-03-21 19:40:00,27.8,12.4,29.89,West,271,10.0,10.0,52,0.00,,,0.00,Wunderground v.1.15,2013-03-21 23:40:00,
2013-03-21 19:46:00,27.6,13.1,29.90,West,267,9.0,11.0,54,0.00,,,0.00,Wunderground v.1.15,2013-03-21 23:46:00,
2013-03-21 19:52:00,27.5,13.0,29.90,WNW,294,7.0,10.0,54,0.00,,,0.00,Wunderground v.1.15,2013-03-21 23:52:00,
2013-03-21 19:57:00,27.4,12.9,29.90,West,279,8.0,10.0,54,0.00,,,0.00,Wunderground v.1.15,2013-03-21 23:57:00,
2013-03-21 20:03:00,27.2,12.7,29.90,WNW,292,6.0,8.0,54,0.00,,,0.00,Wunderground v.1.15,2013-03-22 00:03:00,
2013-03-21 20:09:00,27.0,13.0,29.90,WNW,291,6.0,8.0,55,0.00,,,0.00,Wunderground v.1.15,2013-03-22 00:09:00,
2013-03-21 20:15:00,26.9,12.5,29.90,WNW,286,6.0,7.0,54,0.00,,,0.00,Wunderground v.1.15,2013-03-22 00:15:00,
2013-03-21 20:20:00,26.9,12.0,29.91,WNW,285,7.0,7.0,53,0.00,,,0.00,Wunderground v.1.15,2013-03-22 00:20:00,
2013-03-21 20:25:00,27.0,12.1,29.91,NW,304,9.0,12.0,53,0.00,,,0.00,Wunderground v.1.15,2013-03-22 00:25:00,
2013-03-21 20:31:00,26.8,12.4,29.91,WNW,290,8.0,14.0,54,0.00,,,0.00,Wunderground v.1.15,2013-03-22 00:31:00,
2013-03-21 20:37:00,26.9,12.0,29.92,West,278,10.0,14.0,53,0.00,,,0.00,Wunderground v.1.15,2013-03-22 00:37:00,
2013-03-21 20:43:00,27.1,12.2,29.91,WNW,300,11.0,14.0,53,0.00,,,0.00,Wunderground v.1.15,2013-03-22 00:43:00,
2013-03-21 20:48:00,27.0,12.1,29.92,WNW,286,10.0,14.0,53,0.00,,,0.00,Wunderground v.1.15,2013-03-22 00:48:00,
2013-03-21 20:54:00,26.9,12.0,29.91,WNW,284,9.0,11.0,53,0.00,,,0.00,Wunderground v.1.15,2013-03-22 00:54:00,
2013-03-21 21:00:00,26.7,11.8,29.92,NW,317,9.0,9.0,53,0.00,,,0.00,Wunderground v.1.15,2013-03-22 01:00:00,
2013-03-21 21:06:00,26.6,12.2,29.92,WNW,295,7.0,12.0,54,0.00,,,0.00,Wunderground v.1.15,2013-03-22 01:06:00,
2013-03-21 21:12:00,26.5,12.1,29.92,WNW,290,8.0,13.0,54,0.00,,,0.00,Wunderground v.1.15,2013-03-22 01:12:00,
2013-03-21 21:17:00,26.7,12.3,29.92,WNW,283,9.0,13.0,54,0.00,,,0.00,Wunderground v.1.15,2013-03-22 01:17:00,